createdAt,value
2022-12-28T00:03:31.293Z,21.93
2022-12-28T00:11:12.261Z,21.93
2022-12-28T00:18:50.597Z,21.95
2022-12-28T00:26:22.431Z,21.94
2022-12-28T00:33:54.256Z,21.95
2022-12-28T00:41:26.010Z,21.95
2022-12-28T00:48:57.763Z,21.95
2022-12-28T00:56:31.345Z,21.94
2022-12-28T01:04:04.017Z,21.95
2022-12-28T01:11:35.973Z,21.94
2022-12-28T01:19:08.361Z,21.96
2022-12-28T01:26:40.177Z,21.97
2022-12-28T01:34:12.348Z,21.94
2022-12-28T01:41:44.338Z,21.92
2022-12-28T01:49:34.617Z,21.90
2022-12-28T01:57:09.226Z,21.90
2022-12-28T02:04:40.997Z,21.88
2022-12-28T02:12:15.031Z,21.89
2022-12-28T02:19:48.143Z,21.88
2022-12-28T02:27:48.290Z,21.89
2022-12-28T02:35:36.277Z,21.89
2022-12-28T02:43:08.131Z,21.87
2022-12-28T02:50:56.941Z,21.89
2022-12-28T02:59:31.940Z,21.88
2022-12-28T03:08:07.114Z,21.87
2022-12-28T03:15:39.039Z,21.84
2022-12-28T03:23:31.913Z,21.90
2022-12-28T03:31:07.988Z,21.88
2022-12-28T03:38:59.310Z,21.89
2022-12-28T03:46:52.596Z,21.88
2022-12-28T03:54:26.163Z,21.88
2022-12-28T04:01:58.295Z,21.88
2022-12-28T04:09:32.659Z,21.87
2022-12-28T04:17:05.260Z,21.88
2022-12-28T04:24:37.982Z,21.88
2022-12-28T04:32:10.089Z,21.88
2022-12-28T04:39:56.721Z,21.87
2022-12-28T04:47:29.068Z,21.86
2022-12-28T04:55:00.910Z,21.87
2022-12-28T05:02:32.843Z,21.87
2022-12-28T05:10:05.087Z,21.84
2022-12-28T05:17:36.965Z,21.85
2022-12-28T05:25:08.956Z,21.83
2022-12-28T05:32:40.786Z,21.84
2022-12-28T05:40:12.740Z,21.84
2022-12-28T05:47:44.474Z,21.85
2022-12-28T05:55:16.310Z,21.86
2022-12-28T06:02:48.156Z,21.84
2022-12-28T06:10:20.023Z,21.87
2022-12-28T06:17:53.273Z,21.87
2022-12-28T06:25:25.089Z,21.88
2022-12-28T06:32:57.447Z,21.87
2022-12-28T06:41:02.474Z,21.88
2022-12-28T06:48:20.988Z,21.86
2022-12-28T06:56:00.116Z,21.84
2022-12-28T07:03:31.897Z,21.84
2022-12-28T07:11:18.595Z,21.85
2022-12-28T07:18:50.562Z,21.83
2022-12-28T07:26:25.579Z,21.82
2022-12-28T07:33:59.251Z,21.83
2022-12-28T07:41:36.157Z,21.82
2022-12-28T07:49:10.378Z,21.83
2022-12-28T08:04:13.966Z,21.85
2022-12-28T08:11:45.953Z,21.87
2022-12-28T08:19:17.720Z,21.86
2022-12-28T08:26:49.593Z,21.87
2022-12-28T08:34:27.121Z,21.87
2022-12-28T08:41:59.114Z,21.86
2022-12-28T08:49:30.942Z,21.87
2022-12-28T08:57:02.719Z,21.87
2022-12-28T09:04:34.600Z,21.88
2022-12-28T09:12:07.351Z,21.88
2022-12-28T09:19:39.139Z,21.89
2022-12-28T09:27:10.931Z,21.87
2022-12-28T09:34:42.708Z,21.91
2022-12-28T09:42:23.682Z,21.92
2022-12-28T09:50:16.516Z,21.91
2022-12-28T09:57:50.974Z,21.90
2022-12-28T10:05:23.031Z,21.92
2022-12-28T10:12:54.924Z,21.91
2022-12-28T10:20:26.853Z,21.92
2022-12-28T10:27:58.648Z,21.93
2022-12-28T10:35:40.783Z,21.95
2022-12-28T10:43:19.128Z,21.93
2022-12-28T10:50:55.815Z,21.92
2022-12-28T10:58:30.273Z,21.94
2022-12-28T11:06:27.508Z,21.96
2022-12-28T11:14:11.200Z,21.96
2022-12-28T11:21:43.209Z,21.95
2022-12-28T11:29:16.395Z,21.95
2022-12-28T11:36:48.630Z,21.95
2022-12-28T11:44:29.324Z,21.97
2022-12-28T11:52:30.840Z,21.97
2022-12-28T12:00:22.610Z,21.96
2022-12-28T12:07:55.136Z,21.95
2022-12-28T12:15:43.885Z,21.96
2022-12-28T12:23:28.641Z,21.95
2022-12-28T12:31:02.113Z,21.94
2022-12-28T12:38:58.563Z,21.95
2022-12-28T12:47:03.716Z,21.95
2022-12-28T12:55:30.374Z,21.96
2022-12-28T13:03:35.301Z,21.99
2022-12-28T13:11:11.200Z,22.00
2022-12-28T13:18:56.758Z,22.01
2022-12-28T13:26:29.202Z,22.02
2022-12-28T13:34:14.347Z,22.03
2022-12-28T13:41:54.500Z,22.02
2022-12-28T13:49:26.348Z,22.02
2022-12-28T13:57:20.428Z,22.01
2022-12-28T14:04:52.730Z,22.02
2022-12-28T14:12:25.060Z,22.02
2022-12-28T14:19:57.764Z,22.02
2022-12-28T14:27:29.548Z,22.01
2022-12-28T14:35:01.425Z,22.01
2022-12-28T14:42:33.219Z,22.00
2022-12-28T14:50:24.315Z,22.02
2022-12-28T14:58:00.083Z,22.02
2022-12-28T15:05:43.325Z,22.03
2022-12-28T15:13:16.336Z,22.02
2022-12-28T15:20:49.821Z,22.03
2022-12-28T15:28:21.606Z,22.04
2022-12-28T15:36:03.421Z,22.04
2022-12-28T15:43:35.204Z,22.04
2022-12-28T15:51:06.923Z,22.01
2022-12-28T15:58:38.662Z,22.05
2022-12-28T16:06:10.389Z,22.04
2022-12-28T16:13:42.136Z,22.02
2022-12-28T16:21:14.307Z,22.04
2022-12-28T16:28:46.095Z,22.04
2022-12-28T16:36:19.989Z,22.03
2022-12-28T16:43:52.170Z,22.02
2022-12-28T16:51:23.991Z,22.04
2022-12-28T16:59:00.560Z,22.03
2022-12-28T17:06:32.277Z,22.06
2022-12-28T17:14:06.370Z,22.06
2022-12-28T17:21:38.085Z,22.06
2022-12-28T17:29:09.872Z,22.06
2022-12-28T17:36:41.655Z,22.07
2022-12-28T17:44:13.468Z,22.07
2022-12-28T17:51:45.304Z,22.09
2022-12-28T17:59:17.071Z,22.17
2022-12-28T18:06:48.920Z,22.21
2022-12-28T18:14:20.698Z,22.18
2022-12-28T18:21:52.603Z,22.14
2022-12-28T18:29:24.340Z,22.14
2022-12-28T18:36:56.058Z,22.12
2022-12-28T18:44:27.827Z,22.13
2022-12-28T18:52:01.213Z,22.13
2022-12-28T18:59:33.030Z,22.11
2022-12-28T19:07:11.528Z,22.13
2022-12-28T19:14:54.757Z,22.14
2022-12-28T19:22:26.528Z,22.13
2022-12-28T19:29:58.271Z,22.12
2022-12-28T19:37:30.032Z,22.13
2022-12-28T19:45:07.951Z,22.12
2022-12-28T19:52:41.555Z,22.14
2022-12-28T20:00:14.368Z,22.13
2022-12-28T20:07:46.226Z,22.14
2022-12-28T20:15:17.950Z,22.14
2022-12-28T20:22:49.710Z,22.14
2022-12-28T20:30:21.499Z,22.16
2022-12-28T20:37:53.235Z,22.15
2022-12-28T20:45:25.110Z,22.14
2022-12-28T20:52:56.879Z,22.15
2022-12-28T21:00:28.620Z,22.15
2022-12-28T21:08:00.379Z,22.15
2022-12-28T21:15:32.324Z,22.15
2022-12-28T21:23:04.134Z,22.16
2022-12-28T21:30:35.894Z,22.16
2022-12-28T21:38:07.775Z,22.15
2022-12-28T21:45:39.676Z,22.16
2022-12-28T21:53:11.511Z,22.18
2022-12-28T22:01:02.105Z,22.18
2022-12-28T22:08:52.972Z,22.16
2022-12-28T22:16:24.770Z,22.18
2022-12-28T22:23:56.821Z,22.19
2022-12-28T22:31:28.646Z,22.18
2022-12-28T22:39:00.404Z,22.19
2022-12-28T22:46:32.188Z,22.18
2022-12-28T22:54:03.923Z,22.19
2022-12-28T23:01:36.099Z,22.18
2022-12-28T23:09:08.054Z,22.20
2022-12-28T23:16:39.850Z,22.19
2022-12-28T23:24:31.641Z,22.19
2022-12-28T23:32:03.400Z,22.20
2022-12-28T23:39:35.228Z,22.21
2022-12-28T23:47:07.075Z,22.20
2022-12-28T23:54:38.983Z,22.20
